Time;durP1;ratioP1;P1;durP2;ratioP2;P2;SDS_P1;SDS_P2;PMS_P1;PMS_P2;Temp;Humidity;BMP_temperature;BMP_pressure;BME280_temperature;BME280_humidity;BME280_pressure;Samples;Min_cycle;Max_cycle;Signal;HPM_P1;HPM_P2
2021/07/28 00:01:21;;;;;;;;;;;;;;;19.00;60.37;99940.38;5071427;28;774;-63
2021/07/28 00:03:47;;;;;;;;;;;;;;;19.02;60.49;99940.72;5071480;28;802;-63
2021/07/28 00:06:21;;;;;;;;;;;;;;;19.03;60.58;99933.09;5071339;28;878;-63
2021/07/28 00:08:48;;;;;;;;;;;;;;;18.95;60.80;99936.16;5071440;28;1949;-63
2021/07/28 00:11:15;;;;;;;;;;;;;;;18.95;60.84;99927.75;5071290;28;817;-63
2021/07/28 00:13:44;;;;;;;;;;;;;;;18.84;61.17;99937.78;5071501;28;1028;-64
2021/07/28 00:16:12;;;;;;;;;;;;;;;18.75;61.49;99921.66;5071134;28;1410;-63
2021/07/28 00:24:06;;;;;;;;;;;;;;;18.57;62.29;99923.09;5071103;28;668;-63
2021/07/28 00:26:33;;;;;;;;;;;;;;;18.67;61.99;99925.97;5071241;28;822;-64
2021/07/28 00:29:00;;;;;;;;;;;;;;;18.73;62.00;99919.34;5071074;28;2005;-63
2021/07/28 00:31:26;;;;;;;;;;;;;;;18.67;62.10;99928.75;5071443;28;866;-63
2021/07/28 00:33:53;;;;;;;;;;;;;;;18.61;62.22;99925.00;5071097;28;873;-64
2021/07/28 00:36:20;;;;;;;;;;;;;;;18.51;62.61;99929.75;5069772;28;1291;-63
2021/07/28 00:38:47;;;;;;;;;;;;;;;18.47;62.71;99926.28;5071033;28;952;-64
2021/07/28 00:41:15;;;;;;;;;;;;;;;18.41;62.92;99937.25;5071014;28;1183;-63
2021/07/28 00:43:42;;;;;;;;;;;;;;;18.43;63.12;99926.41;5071337;28;861;-63
2021/07/28 00:46:08;;;;;;;;;;;;;;;18.51;63.04;99927.72;5071921;28;807;-63
2021/07/28 00:48:36;;;;;;;;;;;;;;;18.47;63.11;99932.66;5074681;28;1947;-63
2021/07/28 00:51:04;;;;;;;;;;;;;;;18.46;63.21;99939.50;5074610;28;837;-63
2021/07/28 00:53:32;;;;;;;;;;;;;;;18.40;63.41;99935.72;5074558;28;893;-63
2021/07/28 00:56:00;;;;;;;;;;;;;;;18.25;63.74;99934.66;5074476;28;806;-64
2021/07/28 00:58:29;;;;;;;;;;;;;;;18.06;64.44;99939.28;5074511;28;889;-64
2021/07/28 01:00:56;;;;;;;;;;;;;;;17.89;65.28;99938.66;5073165;28;1163;-63
2021/07/28 01:03:23;;;;;;;;;;;;;;;17.83;65.95;99930.03;5074584;28;814;-63
2021/07/28 01:05:49;;;;;;;;;;;;;;;17.84;66.38;99928.03;5074379;28;850;-63
2021/07/28 01:08:16;;;;;;;;;;;;;;;17.89;66.16;99928.22;5074475;28;1967;-63
2021/07/28 01:10:44;;;;;;;;;;;;;;;17.97;65.81;99920.41;5074343;28;889;-64
2021/07/28 01:13:11;;;;;;;;;;;;;;;17.96;65.78;99930.00;5074307;28;1047;-64
2021/07/28 01:18:06;;;;;;;;;;;;;;;18.07;65.39;99922.06;5074196;28;656;-63
2021/07/28 01:20:45;;;;;;;;;;;;;;;18.17;65.26;99922.91;5074134;28;962;-63
2021/07/28 01:23:25;;;;;;;;;;;;;;;18.29;65.31;99926.91;5074007;28;882;-63
2021/07/28 01:25:52;;;;;;;;;;;;;;;18.33;65.95;99913.59;5074057;28;786;-63
2021/07/28 01:28:24;;;;;;;;;;;;;;;18.32;66.13;99920.41;5073928;28;1914;-63
2021/07/28 01:31:07;;;;;;;;;;;;;;;18.27;66.36;99915.41;5074309;28;846;-63
2021/07/28 01:33:35;;;;;;;;;;;;;;;18.21;66.29;99912.38;5073864;28;825;-63
2021/07/28 01:36:04;;;;;;;;;;;;;;;18.16;66.52;99910.94;5073801;28;790;-63
2021/07/28 01:38:31;;;;;;;;;;;;;;;18.15;66.37;99914.97;5073955;28;881;-63
2021/07/28 01:40:59;;;;;;;;;;;;;;;18.14;66.00;99923.84;5073775;28;865;-64
2021/07/28 01:43:27;;;;;;;;;;;;;;;18.08;66.22;99926.41;5073979;28;818;-64
2021/07/28 01:45:53;;;;;;;;;;;;;;;18.00;66.30;99927.09;5074214;28;756;-64
2021/07/28 01:48:19;;;;;;;;;;;;;;;17.91;66.51;99933.38;5073526;28;1972;-64
2021/07/28 01:50:45;;;;;;;;;;;;;;;18.00;66.38;99927.09;5073540;28;850;-64
2021/07/28 01:53:13;;;;;;;;;;;;;;;18.15;65.88;99928.19;5073384;28;849;-64
2021/07/28 01:55:41;;;;;;;;;;;;;;;18.26;65.47;99928.59;5073499;28;873;-64
2021/07/28 01:58:08;;;;;;;;;;;;;;;18.26;65.40;99930.59;5072541;28;790;-64
2021/07/28 02:00:35;;;;;;;;;;;;;;;18.29;65.17;99924.91;5073419;28;834;-63
2021/07/28 02:03:03;;;;;;;;;;;;;;;18.27;65.13;99924.56;5073383;28;806;-64
2021/07/28 02:05:33;;;;;;;;;;;;;;;18.24;65.19;99922.66;5073240;28;826;-64
2021/07/28 02:08:06;;;;;;;;;;;;;;;18.15;65.34;99926.16;5073284;28;1950;-64
2021/07/28 02:10:37;;;;;;;;;;;;;;;18.12;65.61;99921.47;5073227;28;794;-64
2021/07/28 02:13:04;;;;;;;;;;;;;;;18.10;65.58;99920.38;5073141;28;901;-63
2021/07/28 02:15:32;;;;;;;;;;;;;;;18.06;65.71;99919.72;5072840;28;1399;-63
2021/07/28 02:17:59;;;;;;;;;;;;;;;18.13;65.31;99920.22;5073070;28;818;-64
2021/07/28 02:20:27;;;;;;;;;;;;;;;18.19;65.48;99916.88;5073015;28;896;-63
2021/07/28 02:22:53;;;;;;;;;;;;;;;18.23;65.25;99926.72;5072749;28;965;-64
2021/07/28 02:25:20;;;;;;;;;;;;;;;18.27;65.42;99915.41;5072853;28;806;-64
2021/07/28 02:27:47;;;;;;;;;;;;;;;18.38;65.04;99915.81;5072787;28;1981;-63
2021/07/28 02:30:16;;;;;;;;;;;;;;;18.48;64.64;99925.84;5072748;28;814;-64
2021/07/28 02:32:43;;;;;;;;;;;;;;;18.44;64.55;99924.41;5072683;28;861;-64
2021/07/28 02:35:12;;;;;;;;;;;;;;;18.28;64.99;99916.94;5072919;28;810;-64
2021/07/28 02:37:41;;;;;;;;;;;;;;;18.06;65.78;99917.69;5072615;28;905;-64
2021/07/28 02:40:08;;;;;;;;;;;;;;;17.84;66.30;99925.25;5071309;28;1296;-64
2021/07/28 02:42:34;;;;;;;;;;;;;;;17.66;66.84;99928.56;5072550;28;794;-64
2021/07/28 02:45:01;;;;;;;;;;;;;;;17.51;67.22;99928.22;5072382;28;826;-64
2021/07/28 02:47:28;;;;;;;;;;;;;;;17.39;67.69;99926.22;5072452;28;880;-64
2021/07/28 02:49:56;;;;;;;;;;;;;;;17.32;68.03;99930.00;5072315;28;1893;-64
2021/07/28 02:52:22;;;;;;;;;;;;;;;17.31;68.49;99925.66;5072246;28;825;-64
2021/07/28 02:54:49;;;;;;;;;;;;;;;17.36;68.61;99925.09;5072309;28;822;-64
2021/07/28 02:57:16;;;;;;;;;;;;;;;17.37;68.16;99923.09;5072230;28;901;-64
2021/07/28 02:59:43;;;;;;;;;;;;;;;17.28;68.53;99926.53;5070820;28;1370;-64
2021/07/28 03:02:10;;;;;;;;;;;;;;;17.25;68.89;99933.81;5072170;28;806;-64
2021/07/28 03:04:37;;;;;;;;;;;;;;;17.27;68.73;99914.59;5072143;28;838;-64
2021/07/28 03:07:04;;;;;;;;;;;;;;;17.25;68.82;99925.44;5071982;28;821;-64
2021/07/28 03:09:31;;;;;;;;;;;;;;;17.23;68.92;99925.09;5071786;28;1966;-63
2021/07/28 03:11:58;;;;;;;;;;;;;;;17.25;69.16;99919.84;5071917;28;830;-64
2021/07/28 03:14:25;;;;;;;;;;;;;;;17.28;68.99;99924.56;5072303;28;922;-64
2021/07/28 03:16:51;;;;;;;;;;;;;;;17.29;69.18;99923.31;5071652;28;1334;-64
2021/07/28 03:19:18;;;;;;;;;;;;;;;17.29;69.33;99923.31;5071910;28;810;-64
2021/07/28 03:21:43;;;;;;;;;;;;;;;17.31;69.43;99915.28;5071755;28;858;-64
2021/07/28 03:24:10;;;;;;;;;;;;;;;17.41;69.14;99915.38;5071822;28;906;-64
2021/07/28 03:26:36;;;;;;;;;;;;;;;17.54;68.86;99910.59;5071776;28;794;-64
2021/07/28 03:29:03;;;;;;;;;;;;;;;17.67;68.62;99911.34;5071983;28;1917;-64
2021/07/28 03:31:30;;;;;;;;;;;;;;;17.81;68.07;99907.28;5071721;28;917;-64
2021/07/28 03:33:57;;;;;;;;;;;;;;;17.91;67.94;99903.41;5071715;28;826;-64
2021/07/28 03:36:24;;;;;;;;;;;;;;;18.04;67.80;99902.59;5071692;28;866;-64
2021/07/28 03:38:51;;;;;;;;;;;;;;;18.15;67.39;99903.78;5071839;28;834;-64
2021/07/28 03:41:18;;;;;;;;;;;;;;;18.26;66.94;99905.44;5071653;28;857;-64
2021/07/28 03:43:44;;;;;;;;;;;;;;;18.36;66.78;99915.47;5071565;28;873;-63
2021/07/28 03:46:11;;;;;;;;;;;;;;;18.52;66.34;99912.50;5071666;28;806;-63
2021/07/28 03:48:38;;;;;;;;;;;;;;;18.74;65.82;99914.53;5071570;28;1890;-64
2021/07/28 03:51:05;;;;;;;;;;;;;;;19.00;65.23;99914.41;5071496;28;857;-64
2021/07/28 03:53:34;;;;;;;;;;;;;;;19.19;64.52;99910.47;5071442;28;880;-63
2021/07/28 03:56:01;;;;;;;;;;;;;;;19.24;64.41;99909.06;5071489;28;878;-64
2021/07/28 03:58:27;;;;;;;;;;;;;;;19.27;64.37;99916.56;5070163;28;1409;-63
2021/07/28 04:00:55;;;;;;;;;;;;;;;19.33;64.22;99915.53;5071487;28;873;-63
2021/07/28 04:03:20;;;;;;;;;;;;;;;19.42;63.86;99911.97;5071366;28;830;-64
2021/07/28 04:05:52;;;;;;;;;;;;;;;19.53;63.64;99917.16;5071291;28;869;-64
2021/07/28 04:08:19;;;;;;;;;;;;;;;19.60;63.42;99922.47;5071391;28;1921;-64
2021/07/28 04:10:47;;;;;;;;;;;;;;;19.63;63.35;99917.94;5071286;28;818;-64
2021/07/28 04:13:15;;;;;;;;;;;;;;;19.66;63.24;99915.00;5071601;28;1048;-64
2021/07/28 04:15:42;;;;;;;;;;;;;;;19.76;63.04;99907.44;5071165;28;1231;-64
2021/07/28 04:18:09;;;;;;;;;;;;;;;19.93;62.73;99910.75;5071566;28;787;-64
2021/07/28 04:20:36;;;;;;;;;;;;;;;20.12;62.31;99917.94;5071569;28;783;-64
2021/07/28 04:23:03;;;;;;;;;;;;;;;20.29;61.65;99909.22;5075214;28;810;-64
2021/07/28 04:25:30;;;;;;;;;;;;;;;20.50;61.08;99910.31;5074236;28;1533;-64
2021/07/28 04:27:57;;;;;;;;;;;;;;;20.71;60.81;99903.78;5075041;28;1917;-64
2021/07/28 04:30:23;;;;;;;;;;;;;;;20.91;60.23;99913.72;5075604;28;762;-63
2021/07/28 04:32:50;;;;;;;;;;;;;;;21.07;59.88;99909.81;5074993;28;873;-64
2021/07/28 04:35:17;;;;;;;;;;;;;;;21.07;59.51;99901.38;5074973;28;921;-64
2021/07/28 04:37:44;;;;;;;;;;;;;;;21.12;59.91;99903.53;5074868;28;822;-64
2021/07/28 04:40:11;;;;;;;;;;;;;;;21.22;59.38;99905.06;5074897;28;858;-64
2021/07/28 04:42:38;;;;;;;;;;;;;;;21.35;59.26;99908.44;5074779;28;932;-64
2021/07/28 04:45:05;;;;;;;;;;;;;;;21.48;58.91;99910.31;5074756;28;814;-64
2021/07/28 04:47:33;;;;;;;;;;;;;;;21.67;58.88;99908.19;5075004;28;892;-64
2021/07/28 04:49:59;;;;;;;;;;;;;;;21.88;58.22;99895.09;5074486;28;1874;-64
2021/07/28 04:52:26;;;;;;;;;;;;;;;22.09;57.81;99905.28;5073356;28;1499;-64
2021/07/28 04:54:53;;;;;;;;;;;;;;;22.25;57.75;99894.84;5074561;28;961;-64
2021/07/28 04:57:20;;;;;;;;;;;;;;;22.43;57.15;99898.31;5074554;28;798;-64
2021/07/28 04:59:47;;;;;;;;;;;;;;;22.67;57.05;99893.88;5074446;28;873;-64
2021/07/28 05:02:13;;;;;;;;;;;;;;;22.89;56.37;99887.84;5074503;28;810;-64
2021/07/28 05:04:40;;;;;;;;;;;;;;;23.13;55.76;99891.38;5074460;28;799;-64
2021/07/28 05:07:06;;;;;;;;;;;;;;;23.33;55.64;99890.66;5074393;28;802;-64
2021/07/28 05:14:43;;;;;;;;;;;;;;;23.80;54.91;99888.81;5538687;22;1502;-64
2021/07/28 05:17:10;;;;;;;;;;;;;;;23.86;54.91;99900.19;5054211;28;932;-64
2021/07/28 05:19:37;;;;;;;;;;;;;;;23.96;54.71;99884.66;5054186;28;826;-64
2021/07/28 05:22:04;;;;;;;;;;;;;;;24.32;54.21;99887.41;5054158;28;967;-64
2021/07/28 05:24:31;;;;;;;;;;;;;;;24.84;53.26;99893.88;5054114;28;826;-64
2021/07/28 05:26:58;;;;;;;;;;;;;;;25.54;51.93;99888.28;5054144;28;912;-64
2021/07/28 05:29:24;;;;;;;;;;;;;;;26.25;50.38;99891.25;5053977;28;1980;-65
2021/07/28 05:31:50;;;;;;;;;;;;;;;26.56;49.51;99884.66;5053605;28;846;-64
2021/07/28 05:34:17;;;;;;;;;;;;;;;26.66;49.07;99893.69;5053355;28;865;-64
2021/07/28 05:36:44;;;;;;;;;;;;;;;26.82;48.65;99892.16;5053960;28;884;-64
2021/07/28 05:39:11;;;;;;;;;;;;;;;27.07;48.61;99893.22;5054067;28;822;-65
2021/07/28 05:41:38;;;;;;;;;;;;;;;27.49;47.59;99895.03;5054109;28;818;-64
2021/07/28 05:44:07;;;;;;;;;;;;;;;28.61;45.12;99893.06;5053733;28;851;-64
2021/07/28 05:46:34;;;;;;;;;;;;;;;29.92;42.75;99893.53;5053641;28;798;-64
2021/07/28 05:49:02;;;;;;;;;;;;;;;30.77;40.17;99903.81;5053634;28;1949;-64
2021/07/28 05:51:29;;;;;;;;;;;;;;;31.46;38.92;99902.22;5053510;28;854;-64
2021/07/28 05:53:55;;;;;;;;;;;;;;;32.21;37.59;99901.03;5053574;28;862;-64
2021/07/28 05:56:22;;;;;;;;;;;;;;;32.85;36.48;99904.84;5053405;28;901;-64
2021/07/28 05:58:49;;;;;;;;;;;;;;;33.30;35.65;99903.75;5053424;28;913;-64
2021/07/28 06:01:15;;;;;;;;;;;;;;;33.74;34.40;99909.66;5053454;28;908;-64
2021/07/28 06:03:43;;;;;;;;;;;;;;;34.13;33.76;99902.81;5053383;28;842;-64
2021/07/28 06:06:10;;;;;;;;;;;;;;;34.61;32.79;99907.38;5053263;28;850;-64
2021/07/28 06:08:36;;;;;;;;;;;;;;;35.02;32.36;99896.97;5053190;28;1959;-64
2021/07/28 06:11:02;;;;;;;;;;;;;;;35.15;31.86;99905.44;5053232;28;811;-64
2021/07/28 06:13:28;;;;;;;;;;;;;;;35.34;30.83;99900.06;5053318;28;922;-64
2021/07/28 06:15:56;;;;;;;;;;;;;;;35.47;30.85;99898.34;5053058;28;1249;-64
2021/07/28 06:18:22;;;;;;;;;;;;;;;35.57;30.72;99894.31;5053358;28;826;-64
2021/07/28 06:20:49;;;;;;;;;;;;;;;36.03;30.50;99899.19;5053189;28;822;-64
2021/07/28 06:23:16;;;;;;;;;;;;;;;36.34;30.65;99885.50;5053337;28;861;-64
2021/07/28 06:25:44;;;;;;;;;;;;;;;36.59;29.67;99893.41;5053614;28;838;-64
2021/07/28 06:28:11;;;;;;;;;;;;;;;36.66;29.71;99889.75;5052961;28;1980;-63
2021/07/28 06:30:38;;;;;;;;;;;;;;;37.10;29.56;99886.38;5053022;28;819;-63
2021/07/28 06:33:04;;;;;;;;;;;;;;;37.56;29.01;99888.91;5053016;28;838;-64
2021/07/28 06:35:32;;;;;;;;;;;;;;;37.63;28.65;99875.00;5052957;28;878;-63
2021/07/28 06:37:58;;;;;;;;;;;;;;;38.00;28.06;99873.81;5052889;28;842;-63
2021/07/28 06:40:25;;;;;;;;;;;;;;;38.22;27.41;99874.16;5052935;28;905;-63
2021/07/28 06:42:50;;;;;;;;;;;;;;;38.28;27.00;99874.66;5052955;28;825;-63
2021/07/28 06:45:17;;;;;;;;;;;;;;;38.33;26.04;99876.50;5052194;28;846;-63
2021/07/28 06:47:43;;;;;;;;;;;;;;;38.20;26.57;99874.72;5052595;28;834;-63
2021/07/28 06:50:10;;;;;;;;;;;;;;;38.19;26.34;99869.56;5052329;28;1970;-63
2021/07/28 06:52:36;;;;;;;;;;;;;;;38.29;25.71;99873.28;5052418;28;893;-63
2021/07/28 06:55:03;;;;;;;;;;;;;;;38.19;25.30;99869.56;5052361;28;830;-63
2021/07/28 06:57:30;;;;;;;;;;;;;;;37.78;25.59;99860.41;5052234;28;821;-63
2021/07/28 06:59:57;;;;;;;;;;;;;;;37.91;25.26;99865.81;5052260;28;890;-63
2021/07/28 07:02:24;;;;;;;;;;;;;;;38.12;24.95;99861.78;5052448;28;807;-63
2021/07/28 07:04:51;;;;;;;;;;;;;;;37.91;24.32;99865.81;5052096;28;819;-63
2021/07/28 07:07:17;;;;;;;;;;;;;;;37.50;25.48;99858.78;5052161;28;843;-63
2021/07/28 07:09:43;;;;;;;;;;;;;;;37.82;25.21;99860.75;5051956;28;1931;-63
2021/07/28 07:12:10;;;;;;;;;;;;;;;38.25;24.33;99866.41;5051956;28;885;-63
2021/07/28 07:14:36;;;;;;;;;;;;;;;38.68;24.29;99861.22;5052018;28;1385;-62
2021/07/28 07:17:03;;;;;;;;;;;;;;;39.01;23.54;99864.56;5051974;28;842;-63
2021/07/28 07:19:30;;;;;;;;;;;;;;;39.20;22.79;99867.53;5051905;28;798;-63
2021/07/28 07:21:57;;;;;;;;;;;;;;;39.28;23.25;99867.38;5051881;28;814;-62
2021/07/28 07:24:24;;;;;;;;;;;;;;;39.41;22.65;99866.22;5051915;28;889;-62
2021/07/28 07:26:51;;;;;;;;;;;;;;;39.40;23.28;99862.56;5051620;28;894;-62
2021/07/28 07:29:18;;;;;;;;;;;;;;;39.71;22.75;99864.09;5051722;28;1973;-63
2021/07/28 07:31:45;;;;;;;;;;;;;;;39.97;22.61;99860.34;5052022;28;818;-63
2021/07/28 07:34:12;;;;;;;;;;;;;;;40.18;21.80;99856.03;5051623;28;906;-63
2021/07/28 07:36:39;;;;;;;;;;;;;;;39.91;21.83;99854.09;5051690;28;850;-62
2021/07/28 07:39:07;;;;;;;;;;;;;;;40.00;22.07;99858.34;5051641;28;834;-62
2021/07/28 07:41:34;;;;;;;;;;;;;;;40.08;21.50;99853.16;5051459;28;834;-63
2021/07/28 07:44:01;;;;;;;;;;;;;;;40.16;21.24;99856.66;5051570;28;881;-62
2021/07/28 07:46:26;;;;;;;;;;;;;;;40.09;21.30;99854.69;5033643;28;1200;-62
2021/07/28 07:48:54;;;;;;;;;;;;;;;39.99;21.66;99851.81;5051386;28;1930;-62
2021/07/28 07:51:20;;;;;;;;;;;;;;;39.97;21.49;99845.13;5051430;28;879;-63
2021/07/28 07:53:47;;;;;;;;;;;;;;;40.27;21.42;99845.84;5051421;28;862;-63
2021/07/28 07:56:14;;;;;;;;;;;;;;;40.58;20.93;99845.91;5050651;28;811;-62
2021/07/28 07:58:41;;;;;;;;;;;;;;;40.01;21.72;99849.06;5051389;28;830;-62
2021/07/28 08:01:12;;;;;;;;;;;;;;;40.51;21.82;99841.81;5051326;28;795;-63
2021/07/28 08:03:39;;;;;;;;;;;;;;;40.71;21.22;99848.28;5051305;28;1951;-62
2021/07/28 08:06:06;;;;;;;;;;;;;;;41.12;20.74;99838.81;5051448;28;794;-63
2021/07/28 08:08:34;;;;;;;;;;;;;;;40.91;20.73;99851.16;5051248;28;1945;-63
2021/07/28 08:11:05;;;;;;;;;;;;;;;40.50;20.83;99842.44;5033702;28;886;-63
2021/07/28 08:13:31;;;;;;;;;;;;;;;40.32;21.03;99848.44;5051627;28;1031;-63
2021/07/28 08:15:58;;;;;;;;;;;;;;;40.62;21.52;99852.00;5051350;28;1403;-62
2021/07/28 08:18:24;;;;;;;;;;;;;;;41.19;21.01;99844.44;5051431;28;881;-63
2021/07/28 08:20:51;;;;;;;;;;;;;;;41.54;20.22;99849.69;5051910;28;818;-62
2021/07/28 08:23:18;;;;;;;;;;;;;;;41.21;20.55;99841.69;5051840;28;770;-62
2021/07/28 08:25:45;;;;;;;;;;;;;;;41.09;21.16;99840.06;5052100;28;764;-62
2021/07/28 08:28:11;;;;;;;;;;;;;;;41.09;20.73;99843.72;5051318;28;1914;-62
2021/07/28 08:30:38;;;;;;;;;;;;;;;40.84;20.87;99844.16;5051124;28;905;-63
2021/07/28 08:33:04;;;;;;;;;;;;;;;40.50;20.84;99843.22;5051225;28;818;-63
2021/07/28 08:35:30;;;;;;;;;;;;;;;40.58;20.70;99846.66;5051017;28;837;-62
2021/07/28 08:37:57;;;;;;;;;;;;;;;40.59;20.95;99847.44;5051143;28;878;-62
2021/07/28 08:40:24;;;;;;;;;;;;;;;40.68;21.13;99849.53;5050903;28;835;-63
2021/07/28 08:42:54;;;;;;;;;;;;;;;40.80;21.05;99846.78;5050932;28;853;-63
2021/07/28 08:45:20;;;;;;;;;;;;;;;41.21;21.33;99835.91;5051325;28;835;-63
2021/07/28 08:47:47;;;;;;;;;;;;;;;41.80;20.95;99829.66;5050998;28;814;-62
2021/07/28 08:50:14;;;;;;;;;;;;;;;41.79;20.60;99828.91;5050808;28;1886;-63
2021/07/28 08:52:41;;;;;;;;;;;;;;;41.57;20.31;99831.09;5050922;28;913;-62
2021/07/28 08:55:08;;;;;;;;;;;;;;;41.75;20.18;99825.75;5050917;28;866;-62
2021/07/28 08:57:35;;;;;;;;;;;;;;;42.05;20.63;99829.16;5050821;28;838;-62
2021/07/28 09:00:03;;;;;;;;;;;;;;;42.05;20.19;99826.25;5050881;28;802;-62
2021/07/28 09:02:30;;;;;;;;;;;;;;;41.92;20.44;99818.13;5051679;28;834;-62
2021/07/28 09:04:57;;;;;;;;;;;;;;;41.33;21.44;99817.81;5051174;28;834;-62
2021/07/28 09:07:23;;;;;;;;;;;;;;;41.05;20.80;99811.56;5052366;28;775;-62
2021/07/28 09:09:50;;;;;;;;;;;;;;;40.88;21.04;99812.56;5054280;28;1886;-62
2021/07/28 09:12:17;;;;;;;;;;;;;;;41.05;21.33;99814.44;5054282;28;861;-62
2021/07/28 09:14:57;;;;;;;;;;;;;;;40.98;21.45;99809.63;5054222;28;1379;-62
2021/07/28 09:17:27;;;;;;;;;;;;;;;40.68;21.55;99806.09;5054245;28;822;-62
2021/07/28 09:19:54;;;;;;;;;;;;;;;40.62;21.42;99806.41;5054212;28;822;-62
2021/07/28 09:22:21;;;;;;;;;;;;;;;40.91;20.51;99799.75;5054076;28;877;-62
2021/07/28 09:25:08;;;;;;;;;;;;;;;41.14;20.56;99802.06;5054204;28;818;-62
2021/07/28 09:27:42;;;;;;;;;;;;;;;40.88;20.44;99797.31;5054213;28;950;-62
2021/07/28 09:30:09;;;;;;;;;;;;;;;41.03;20.83;99799.81;5054162;28;1910;-62
2021/07/28 09:32:56;;;;;;;;;;;;;;;40.87;21.37;99805.25;5054150;28;818;-62
2021/07/28 09:35:43;;;;;;;;;;;;;;;40.71;21.11;99801.94;5053857;28;806;-62
2021/07/28 09:38:10;;;;;;;;;;;;;;;40.59;22.02;99793.16;5054159;28;830;-62
2021/07/28 09:40:36;;;;;;;;;;;;;;;40.31;22.39;99800.59;5053548;28;898;-62
2021/07/28 09:43:06;;;;;;;;;;;;;;;40.26;21.79;99797.97;5053750;28;874;-62
2021/07/28 09:45:32;;;;;;;;;;;;;;;40.21;21.66;99794.03;5053694;28;795;-62
2021/07/28 09:47:59;;;;;;;;;;;;;;;40.23;21.59;99797.09;5053522;28;1956;-62
2021/07/28 09:50:26;;;;;;;;;;;;;;;39.89;21.44;99793.19;5053613;28;919;-62
2021/07/28 09:53:13;;;;;;;;;;;;;;;39.48;21.89;99798.06;5053857;28;818;-62
2021/07/28 09:55:45;;;;;;;;;;;;;;;38.88;22.53;99790.63;5053397;28;1346;-62
2021/07/28 09:58:13;;;;;;;;;;;;;;;38.54;23.64;99791.56;5053403;28;885;-62
2021/07/28 10:00:40;;;;;;;;;;;;;;;38.55;23.20;99781.53;5053467;28;826;-63
2021/07/28 10:03:07;;;;;;;;;;;;;;;38.23;23.58;99786.22;5053259;28;986;-63
2021/07/28 10:05:37;;;;;;;;;;;;;;;37.81;24.57;99787.13;5053362;28;822;-62
2021/07/28 10:08:07;;;;;;;;;;;;;;;37.47;24.00;99788.66;5053214;28;1956;-62
2021/07/28 10:10:36;;;;;;;;;;;;;;;37.40;24.72;99777.97;5053050;28;862;-63
2021/07/28 10:13:03;;;;;;;;;;;;;;;37.42;25.32;99781.00;5053212;28;1054;-63
2021/07/28 10:15:30;;;;;;;;;;;;;;;37.43;25.44;99776.78;5052890;28;1272;-62
2021/07/28 10:17:58;;;;;;;;;;;;;;;37.47;25.38;99773.47;5052950;28;877;-61
2021/07/28 10:20:25;;;;;;;;;;;;;;;37.46;24.43;99769.81;5052339;28;830;-62
2021/07/28 10:22:52;;;;;;;;;;;;;;;37.54;24.99;99775.53;5053049;28;795;-63
2021/07/28 10:25:20;;;;;;;;;;;;;;;37.63;23.99;99768.34;5052873;28;849;-63
2021/07/28 10:27:50;;;;;;;;;;;;;;;37.71;23.69;99755.34;5052962;28;826;-62
2021/07/28 10:30:20;;;;;;;;;;;;;;;37.84;24.46;99756.34;5052877;28;1910;-63
2021/07/28 10:32:47;;;;;;;;;;;;;;;38.23;24.99;99751.56;5052772;28;818;-62
2021/07/28 10:35:16;;;;;;;;;;;;;;;38.35;24.75;99761.22;5052717;28;874;-61
2021/07/28 10:37:43;;;;;;;;;;;;;;;38.25;24.14;99757.50;5052967;28;802;-62
2021/07/28 10:40:25;;;;;;;;;;;;;;;38.10;24.19;99749.84;5052756;28;846;-62
2021/07/28 10:42:54;;;;;;;;;;;;;;;38.08;24.61;99746.03;5052556;28;795;-63
2021/07/28 10:45:22;;;;;;;;;;;;;;;38.09;24.89;99748.34;5052733;28;821;-62
2021/07/28 10:47:50;;;;;;;;;;;;;;;38.11;24.79;99751.38;5052433;28;803;-62
2021/07/28 10:50:26;;;;;;;;;;;;;;;38.02;25.12;99737.63;5052506;28;1886;-62
2021/07/28 10:52:54;;;;;;;;;;;;;;;37.89;24.68;99738.75;5052369;28;898;-63
2021/07/28 10:55:20;;;;;;;;;;;;;;;37.96;24.33;99742.88;5052423;28;810;-63
2021/07/28 10:57:51;;;;;;;;;;;;;;;37.94;24.49;99736.97;5052313;28;821;-63
2021/07/28 11:00:38;;;;;;;;;;;;;;;37.88;25.22;99748.78;5052238;28;901;-63
2021/07/28 11:03:07;;;;;;;;;;;;;;;37.95;24.99;99736.38;5052280;28;786;-62
2021/07/28 11:05:37;;;;;;;;;;;;;;;38.12;25.20;99735.59;5052111;28;798;-64
2021/07/28 11:08:04;;;;;;;;;;;;;;;37.89;24.83;99727.22;5051971;28;1890;-63
2021/07/28 11:10:37;;;;;;;;;;;;;;;37.76;25.90;99734.13;5052088;28;838;-63
2021/07/28 11:13:11;;;;;;;;;;;;;;;37.93;25.34;99730.44;5052782;28;886;-63
2021/07/28 11:15:37;;;;;;;;;;;;;;;38.09;24.40;99730.25;5051776;28;1261;-63
2021/07/28 11:18:04;;;;;;;;;;;;;;;37.95;24.71;99719.06;5051903;28;787;-63
2021/07/28 11:20:32;;;;;;;;;;;;;;;37.87;25.09;99727.06;5051898;28;862;-63
2021/07/28 11:23:19;;;;;;;;;;;;;;;37.84;24.50;99727.50;5051965;28;806;-62
2021/07/28 11:25:46;;;;;;;;;;;;;;;38.11;24.15;99722.53;5037947;28;1227;-63
2021/07/28 11:28:14;;;;;;;;;;;;;;;38.36;24.80;99728.09;5051568;28;1977;-62
2021/07/28 11:30:42;;;;;;;;;;;;;;;38.61;24.48;99721.38;5051671;28;870;-62
2021/07/28 11:33:13;;;;;;;;;;;;;;;38.71;24.22;99719.28;5051690;28;1006;-62
2021/07/28 11:35:44;;;;;;;;;;;;;;;38.68;23.40;99725.50;5051655;28;811;-63
2021/07/28 11:38:18;;;;;;;;;;;;;;;38.66;24.43;99720.31;5034087;28;827;-62
2021/07/28 11:40:46;;;;;;;;;;;;;;;38.76;23.61;99724.00;5051559;28;881;-63
2021/07/28 11:43:28;;;;;;;;;;;;;;;38.76;23.24;99721.09;5051667;28;877;-62
2021/07/28 11:45:56;;;;;;;;;;;;;;;38.69;23.50;99716.22;5051531;28;940;-63
2021/07/28 11:48:29;;;;;;;;;;;;;;;38.75;23.09;99719.59;5051442;28;1910;-61
2021/07/28 11:50:56;;;;;;;;;;;;;;;38.82;23.25;99722.97;5051819;28;869;-61
2021/07/28 11:53:25;;;;;;;;;;;;;;;39.28;23.33;99722.09;5051575;28;835;-61
2021/07/28 11:55:53;;;;;;;;;;;;;;;39.39;23.33;99704.94;5051438;28;822;-61
2021/07/28 11:58:19;;;;;;;;;;;;;;;39.56;22.93;99712.69;5051489;28;870;-61
2021/07/28 12:00:49;;;;;;;;;;;;;;;39.71;22.53;99711.59;5051401;28;893;-60
2021/07/28 12:03:29;;;;;;;;;;;;;;;39.71;22.32;99707.94;5051344;28;823;-61
2021/07/28 12:06:06;;;;;;;;;;;;;;;39.57;22.31;99708.41;5051376;28;914;-60
2021/07/28 12:08:33;;;;;;;;;;;;;;;39.84;22.54;99700.91;5051158;28;1918;-60
2021/07/28 12:11:03;;;;;;;;;;;;;;;40.18;22.12;99693.97;5051320;28;893;-60
2021/07/28 12:13:42;;;;;;;;;;;;;;;40.01;21.50;99692.06;5051383;28;900;-60
2021/07/28 12:16:07;;;;;;;;;;;;;;;39.88;22.00;99693.34;5050986;28;1329;-60
2021/07/28 12:18:52;;;;;;;;;;;;;;;40.08;22.42;99687.47;5051223;28;807;-60
2021/07/28 12:21:19;;;;;;;;;;;;;;;40.42;21.30;99683.38;5051489;28;827;-61
2021/07/28 12:23:51;;;;;;;;;;;;;;;40.62;20.63;99675.31;5051154;28;1097;-61
2021/07/28 12:26:38;;;;;;;;;;;;;;;40.92;20.75;99685.34;5051198;28;857;-61
2021/07/28 12:29:05;;;;;;;;;;;;;;;40.91;20.69;99669.38;5051289;28;1906;-61
2021/07/28 12:31:31;;;;;;;;;;;;;;;40.87;21.17;99672.00;5051103;28;818;-61
2021/07/28 12:34:17;;;;;;;;;;;;;;;40.74;21.61;99670.41;5051108;28;998;-61
2021/07/28 12:36:43;;;;;;;;;;;;;;;40.70;21.90;99672.25;5051323;28;897;-61
2021/07/28 12:39:10;;;;;;;;;;;;;;;40.48;21.21;99659.84;5051292;28;878;-61
2021/07/28 12:41:38;;;;;;;;;;;;;;;40.32;21.64;99668.19;5051328;28;818;-61
2021/07/28 12:44:05;;;;;;;;;;;;;;;40.25;21.76;99669.88;5055143;28;798;-62
2021/07/28 12:46:32;;;;;;;;;;;;;;;40.21;21.32;99673.22;5055068;28;849;-61
2021/07/28 12:48:58;;;;;;;;;;;;;;;40.21;21.28;99666.69;5055025;28;1957;-61
2021/07/28 12:51:25;;;;;;;;;;;;;;;39.98;21.59;99664.34;5054955;28;830;-61
2021/07/28 12:53:52;;;;;;;;;;;;;;;39.68;21.77;99674.47;5054973;28;870;-61
2021/07/28 12:56:18;;;;;;;;;;;;;;;39.61;22.21;99658.81;5054825;28;870;-62
2021/07/28 12:58:45;;;;;;;;;;;;;;;39.58;22.43;99669.47;5055060;28;775;-61
2021/07/28 13:01:11;;;;;;;;;;;;;;;39.77;22.20;99665.00;5055006;28;819;-62
2021/07/28 13:03:40;;;;;;;;;;;;;;;39.96;21.95;99662.06;5054494;28;908;-61
2021/07/28 13:06:08;;;;;;;;;;;;;;;40.14;21.42;99664.75;5054786;28;799;-61
2021/07/28 13:08:35;;;;;;;;;;;;;;;39.85;21.70;99662.72;5054569;28;1961;-61
2021/07/28 13:11:02;;;;;;;;;;;;;;;39.68;22.01;99660.00;5054518;28;980;-60
2021/07/28 13:13:29;;;;;;;;;;;;;;;39.46;22.16;99668.56;5054760;28;905;-61
2021/07/28 13:15:57;;;;;;;;;;;;;;;39.19;22.44;99668.72;5054212;28;1292;-61
2021/07/28 13:18:24;;;;;;;;;;;;;;;39.05;22.96;99668.44;5054255;28;838;-61
2021/07/28 13:20:50;;;;;;;;;;;;;;;39.16;22.87;99664.94;5054156;28;838;-61
2021/07/28 13:23:18;;;;;;;;;;;;;;;39.45;22.47;99661.25;5054329;28;826;-61